Time;durP1;ratioP1;P1;durP2;ratioP2;P2;SDS_P1;SDS_P2;PMS_P1;PMS_P2;Temp;Humidity;BMP_temperature;BMP_pressure;BME280_temperature;BME280_humidity;BME280_pressure;Samples;Min_cycle;Max_cycle;Signal;HPM_P1;HPM_P2
2023/04/09 00:01:38;;;;;;;2.40;1.87;;;;;5.20;96576.00;;;;5052676;28;20653;-60
2023/04/09 00:04:06;;;;;;;2.20;2.00;;;;;5.10;96572.00;;;;5052765;28;20377;-61
2023/04/09 00:06:33;;;;;;;1.63;1.53;;;;;5.10;96573.00;;;;5053033;28;20199;-60
2023/04/09 00:09:02;;;;;;;1.47;1.37;;;;;5.10;96571.00;;;;5052758;28;20196;-60
2023/04/09 00:11:30;;;;;;;3.03;2.83;;;;;5.10;96568.00;;;;5053518;28;20656;-60
2023/04/09 00:13:58;;;;;;;2.50;2.40;;;;;5.10;96566.00;;;;5052800;28;20218;-62
2023/04/09 00:16:26;;;;;;;0.97;0.97;;;;;5.00;96558.00;;;;5052618;28;20485;-60
2023/04/09 00:18:53;;;;;;;1.83;1.73;;;;;5.10;96562.00;;;;5052621;28;20203;-62
2023/04/09 00:21:20;;;;;;;4.37;2.60;;;;;5.10;96575.00;;;;5052536;28;20596;-59
2023/04/09 00:23:48;;;;;;;2.63;2.43;;;;;5.10;96562.00;;;;5052782;28;20211;-62
2023/04/09 00:26:17;;;;;;;3.93;3.43;;;;;5.10;96566.00;;;;5052594;28;20193;-62
2023/04/09 00:28:44;;;;;;;2.27;2.17;;;;;5.10;96562.00;;;;5056532;28;20203;-61
2023/04/09 00:31:12;;;;;;;1.30;1.30;;;;;4.90;96563.00;;;;5056766;28;20223;-61
2023/04/09 00:33:40;;;;;;;1.87;1.77;;;;;4.80;96557.00;;;;5056320;28;20241;-61
2023/04/09 00:36:07;;;;;;;2.77;2.53;;;;;4.70;96557.00;;;;5056639;28;20196;-61
2023/04/09 00:38:35;;;;;;;2.00;1.90;;;;;4.80;96558.00;;;;5056380;28;20193;-64
2023/04/09 00:41:02;;;;;;;2.30;2.13;;;;;4.80;96562.00;;;;5056338;28;20194;-61
2023/04/09 00:43:31;;;;;;;2.70;2.43;;;;;4.70;96553.00;;;;5056358;28;20223;-61
2023/04/09 00:45:59;;;;;;;2.37;2.27;;;;;4.70;96553.00;;;;5056798;28;20188;-61
2023/04/09 00:48:27;;;;;;;5.67;2.50;;;;;4.60;96549.00;;;;5056272;28;20192;-61
2023/04/09 00:50:54;;;;;;;3.50;3.20;;;;;4.80;96555.00;;;;5038475;28;20192;-62
2023/04/09 00:53:22;;;;;;;1.30;1.30;;;;;4.80;96554.00;;;;5056007;28;20213;-61
2023/04/09 00:55:50;;;;;;;3.53;2.37;;;;;4.70;96559.00;;;;5056099;28;20252;-61
2023/04/09 00:58:17;;;;;;;1.70;1.60;;;;;4.80;96559.00;;;;5055941;28;20203;-61
2023/04/09 01:00:46;;;;;;;2.57;2.37;;;;;4.70;96558.00;;;;5055957;28;20207;-62
2023/04/09 01:03:14;;;;;;;2.63;2.37;;;;;4.80;96562.00;;;;5055777;28;20224;-61
2023/04/09 01:05:51;;;;;;;3.23;3.03;;;;;4.70;96569.00;;;;5055938;28;20196;-61
2023/04/09 01:08:29;;;;;;;3.03;2.77;;;;;4.60;96560.00;;;;5056127;28;20180;-60
2023/04/09 01:11:07;;;;;;;2.30;2.20;;;;;4.70;96556.00;;;;5056118;28;20185;-61
2023/04/09 01:13:42;;;;;;;4.20;2.43;;;;;4.80;96558.00;;;;5055941;28;20570;-60
2023/04/09 01:16:12;;;;;;;1.53;1.43;;;;;4.70;96562.00;;;;5056039;28;20191;-60
2023/04/09 01:18:44;;;;;;;1.73;1.63;;;;;4.60;96563.00;;;;5055587;28;20672;-60
2023/04/09 01:21:16;;;;;;;2.70;2.50;;;;;4.60;96557.00;;;;5037617;28;20220;-60
2023/04/09 01:23:57;;;;;;;1.73;1.63;;;;;4.60;96553.00;;;;5055590;28;20218;-60
2023/04/09 01:26:37;;;;;;;1.10;1.10;;;;;4.70;96555.00;;;;5037591;28;20683;-60
2023/04/09 01:29:07;;;;;;;1.53;1.43;;;;;4.60;96559.00;;;;5055556;28;20181;-61
2023/04/09 01:31:37;;;;;;;2.80;1.93;;;;;4.60;96562.00;;;;5056218;28;20192;-60
2023/04/09 01:34:07;;;;;;;3.63;2.67;;;;;4.60;96562.00;;;;5055777;28;20227;-60
2023/04/09 01:36:35;;;;;;;1.37;1.37;;;;;4.60;96559.00;;;;5055314;28;20192;-61
2023/04/09 01:39:03;;;;;;;3.87;2.13;;;;;4.70;96558.00;;;;5054880;28;20194;-60
2023/04/09 01:41:34;;;;;;;1.37;1.37;;;;;4.70;96570.00;;;;5055197;28;20195;-61
2023/04/09 01:44:03;;;;;;;1.70;1.60;;;;;4.70;96559.00;;;;5037198;28;20315;-61
2023/04/09 01:46:33;;;;;;;1.63;1.53;;;;;4.70;96566.00;;;;5055068;28;20746;-60
2023/04/09 01:49:01;;;;;;;1.93;1.83;;;;;4.70;96558.00;;;;5055722;28;20222;-61
2023/04/09 01:51:30;;;;;;;2.40;2.20;;;;;4.70;96558.00;;;;5055274;28;20196;-61
2023/04/09 01:53:58;;;;;;;1.63;1.53;;;;;4.70;96558.00;;;;5055064;28;20222;-60
2023/04/09 01:56:25;;;;;;;1.73;1.63;;;;;4.70;96560.00;;;;5055003;28;20200;-60
2023/04/09 01:58:53;;;;;;;1.90;1.80;;;;;4.80;96565.00;;;;5054908;28;20217;-60
2023/04/09 02:01:26;;;;;;;2.67;2.50;;;;;4.80;96552.00;;;;5054730;28;20190;-60
2023/04/09 02:03:57;;;;;;;1.47;1.43;;;;;4.80;96552.00;;;;5055001;28;20212;-60
2023/04/09 02:06:40;;;;;;;1.60;1.50;;;;;4.70;96555.00;;;;5054933;28;20612;-60
2023/04/09 02:09:09;;;;;;;1.23;1.07;;;;;4.60;96560.00;;;;5055253;28;20209;-60
2023/04/09 02:11:40;;;;;;;4.53;1.47;;;;;4.70;96556.00;;;;5055116;28;20683;-61
2023/04/09 02:14:09;;;;;;;2.03;1.90;;;;;4.60;96552.00;;;;5055103;28;20221;-60
2023/04/09 02:16:38;;;;;;;2.53;1.97;;;;;4.60;96553.00;;;;5054718;28;20223;-61
2023/04/09 02:19:07;;;;;;;1.63;1.53;;;;;4.60;96559.00;;;;5054512;28;20192;-60
2023/04/09 02:21:34;;;;;;;2.67;2.07;;;;;4.70;96557.00;;;;5054613;28;20587;-61
2023/04/09 02:24:01;;;;;;;2.30;1.70;;;;;4.70;96560.00;;;;5054322;28;20215;-62
2023/04/09 02:26:29;;;;;;;2.27;2.10;;;;;4.60;96560.00;;;;5054603;28;20203;-61
2023/04/09 02:28:56;;;;;;;1.60;1.50;;;;;4.70;96553.00;;;;5054690;28;20215;-61
2023/04/09 02:31:24;;;;;;;0.93;0.93;;;;;4.60;96552.00;;;;5054268;28;20539;-61
2023/04/09 02:33:52;;;;;;;1.33;1.30;;;;;4.60;96555.00;;;;5036335;28;20273;-61
2023/04/09 02:36:21;;;;;;;1.23;1.23;;;;;4.60;96553.00;;;;5054406;28;20284;-61
2023/04/09 02:38:49;;;;;;;1.00;1.00;;;;;4.50;96548.00;;;;5054392;28;20643;-61
2023/04/09 02:41:16;;;;;;;1.10;1.10;;;;;4.50;96548.00;;;;5054146;28;20203;-61
2023/04/09 02:43:43;;;;;;;0.87;0.87;;;;;4.60;96551.00;;;;5054196;28;20226;-60
2023/04/09 02:46:11;;;;;;;1.80;1.70;;;;;4.60;96547.00;;;;5054233;28;20201;-61
2023/04/09 02:48:38;;;;;;;1.67;1.57;;;;;4.50;96550.00;;;;5054021;28;20188;-60
2023/04/09 02:51:07;;;;;;;1.97;1.87;;;;;4.50;96548.00;;;;5053178;28;20197;-62
2023/04/09 02:53:36;;;;;;;2.77;2.10;;;;;4.50;96556.00;;;;5054092;28;20213;-61
2023/04/09 02:56:04;;;;;;;1.40;1.40;;;;;4.60;96548.00;;;;5053850;28;20659;-61
2023/04/09 02:58:32;;;;;;;1.20;1.17;;;;;4.50;96542.00;;;;5054140;28;20198;-61
2023/04/09 03:00:59;;;;;;;2.87;2.67;;;;;4.60;96543.00;;;;5053980;28;20262;-60
2023/04/09 03:03:26;;;;;;;3.50;1.80;;;;;4.60;96548.00;;;;5035661;28;20317;-60
2023/04/09 03:05:54;;;;;;;1.73;1.63;;;;;4.60;96546.00;;;;5054148;28;20271;-59
2023/04/09 03:08:21;;;;;;;1.87;1.67;;;;;4.50;96543.00;;;;5053589;28;20262;-61
2023/04/09 03:10:50;;;;;;;1.60;1.50;;;;;4.60;96541.00;;;;5054229;28;20606;-60
2023/04/09 03:13:18;;;;;;;1.60;1.50;;;;;4.50;96536.00;;;;5035690;28;20212;-60
2023/04/09 03:15:45;;;;;;;3.30;1.57;;;;;4.50;96528.00;;;;5053532;28;20192;-62
2023/04/09 03:18:12;;;;;;;2.50;2.30;;;;;4.40;96532.00;;;;5035613;28;20273;-60
2023/04/09 03:20:40;;;;;;;1.57;1.47;;;;;4.40;96533.00;;;;5053383;28;20192;-61
2023/04/09 03:23:07;;;;;;;3.63;2.60;;;;;4.50;96532.00;;;;5053075;28;20274;-60
2023/04/09 03:25:35;;;;;;;1.47;1.37;;;;;4.40;96525.00;;;;5053555;28;20196;-60
2023/04/09 03:28:04;;;;;;;1.60;1.50;;;;;4.30;96524.00;;;;5053409;28;20563;-60
2023/04/09 03:30:31;;;;;;;2.70;2.50;;;;;4.30;96524.00;;;;5053051;28;20228;-61
2023/04/09 03:32:59;;;;;;;1.60;1.53;;;;;4.20;96518.00;;;;5053245;28;20224;-60
2023/04/09 03:35:26;;;;;;;1.33;1.33;;;;;4.30;96531.00;;;;5053642;28;20699;-61
2023/04/09 03:37:54;;;;;;;4.53;1.63;;;;;4.30;96528.00;;;;5053398;28;20667;-63
2023/04/09 03:40:21;;;;;;;1.83;1.73;;;;;4.30;96524.00;;;;5053274;28;20273;-60
2023/04/09 03:42:48;;;;;;;2.37;2.20;;;;;4.20;96526.00;;;;5052852;28;20220;-60
2023/04/09 03:45:17;;;;;;;1.87;1.73;;;;;4.30;96528.00;;;;5035112;28;20659;-60
2023/04/09 03:47:45;;;;;;;2.20;2.07;;;;;4.20;96526.00;;;;5053088;28;20200;-60
2023/04/09 03:50:12;;;;;;;1.27;1.23;;;;;4.20;96530.00;;;;5052930;28;20200;-61
2023/04/09 03:52:40;;;;;;;0.90;0.90;;;;;4.20;96526.00;;;;5053363;28;20192;-62
2023/04/09 03:55:09;;;;;;;1.60;1.50;;;;;4.20;96534.00;;;;5052969;28;20196;-62
2023/04/09 03:57:36;;;;;;;1.57;1.47;;;;;4.30;96521.00;;;;5052878;28;20249;-61
2023/04/09 04:00:05;;;;;;;1.80;1.70;;;;;4.30;96538.00;;;;5053180;28;20254;-61
2023/04/09 04:02:34;;;;;;;1.90;1.30;;;;;4.30;96537.00;;;;5052480;28;20213;-61
2023/04/09 04:05:01;;;;;;;1.33;1.23;;;;;4.20;96529.00;;;;5034961;28;20247;-61
2023/04/09 04:07:28;;;;;;;1.80;1.73;;;;;4.10;96528.00;;;;5053412;28;20195;-61
2023/04/09 04:09:56;;;;;;;1.73;1.63;;;;;4.10;96526.00;;;;5052732;28;20199;-61
2023/04/09 04:12:23;;;;;;;1.00;1.00;;;;;4.10;96525.00;;;;5052726;28;20551;-62
2023/04/09 04:14:51;;;;;;;2.43;2.27;;;;;4.10;96529.00;;;;5052619;28;20593;-61
2023/04/09 04:17:18;;;;;;;2.20;2.07;;;;;4.10;96530.00;;;;5052682;28;20195;-62
2023/04/09 04:19:47;;;;;;;2.30;2.20;;;;;4.10;96521.00;;;;5052915;28;20199;-62
2023/04/09 04:22:14;;;;;;;1.40;1.37;;;;;4.10;96531.00;;;;5052523;28;20282;-61
2023/04/09 04:24:42;;;;;;;1.47;1.37;;;;;4.00;96536.00;;;;5052456;28;20287;-61
2023/04/09 04:27:09;;;;;;;1.67;1.57;;;;;3.70;96529.00;;;;5052686;28;20559;-61
2023/04/09 04:29:37;;;;;;;1.87;1.77;;;;;3.70;96540.00;;;;5052603;28;20188;-61
2023/04/09 04:32:05;;;;;;;1.67;1.57;;;;;3.80;96542.00;;;;5052494;28;20192;-61
2023/04/09 04:34:33;;;;;;;0.90;0.90;;;;;3.70;96543.00;;;;5052216;28;20699;-61
2023/04/09 04:37:02;;;;;;;1.87;1.77;;;;;3.80;96539.00;;;;5052737;28;20559;-62
2023/04/09 04:39:31;;;;;;;1.10;1.10;;;;;3.90;96541.00;;;;5052574;28;20668;-61
2023/04/09 04:41:58;;;;;;;1.73;1.63;;;;;3.90;96537.00;;;;5052531;28;20192;-60
2023/04/09 04:44:26;;;;;;;1.17;1.17;;;;;3.80;96536.00;;;;5052569;28;20225;-62
2023/04/09 04:46:53;;;;;;;3.03;1.53;;;;;3.80;96537.00;;;;5034602;28;20232;-61
2023/04/09 04:49:21;;;;;;;2.10;1.97;;;;;3.90;96529.00;;;;5052334;28;20243;-60
2023/04/09 04:51:48;;;;;;;1.73;1.63;;;;;3.90;96530.00;;;;5052301;28;20667;-60
2023/04/09 04:54:17;;;;;;;1.60;1.53;;;;;3.80;96531.00;;;;5052248;28;20232;-60
2023/04/09 04:56:45;;;;;;;2.13;2.03;;;;;3.80;96536.00;;;;5052297;28;20531;-60
2023/04/09 04:59:12;;;;;;;1.40;1.40;;;;;3.80;96536.00;;;;5052233;28;20192;-60
2023/04/09 05:01:39;;;;;;;2.20;2.03;;;;;3.80;96548.00;;;;5052745;28;20192;-60
2023/04/09 05:04:07;;;;;;;1.57;1.50;;;;;3.80;96540.00;;;;5052312;28;20686;-61
2023/04/09 05:06:35;;;;;;;2.17;2.07;;;;;3.80;96541.00;;;;5052247;28;20192;-62
2023/04/09 05:09:02;;;;;;;2.07;1.93;;;;;3.80;96545.00;;;;5052157;28;20203;-60
2023/04/09 05:11:31;;;;;;;1.83;1.73;;;;;3.70;96535.00;;;;5052685;28;20207;-60
2023/04/09 05:13:58;;;;;;;1.50;1.30;;;;;3.50;96541.00;;;;5054492;28;20212;-60
2023/04/09 05:16:26;;;;;;;1.37;1.37;;;;;3.50;96540.00;;;;5055865;28;20191;-61
2023/04/09 05:18:54;;;;;;;1.90;1.80;;;;;3.70;96537.00;;;;5055713;28;20715;-61
2023/04/09 05:21:21;;;;;;;1.63;1.53;;;;;3.70;96533.00;;;;5055872;28;20565;-61
2023/04/09 05:23:48;;;;;;;2.40;1.90;;;;;3.80;96540.00;;;;5055479;28;20212;-60
2023/04/09 05:26:16;;;;;;;2.43;2.23;;;;;3.90;96546.00;;;;5055678;28;20613;-60
2023/04/09 05:28:45;;;;;;;2.30;2.20;;;;;3.80;96542.00;;;;5055686;28;20192;-60
2023/04/09 05:31:14;;;;;;;2.50;2.30;;;;;3.70;96544.00;;;;5055464;28;20188;-60
2023/04/09 05:33:41;;;;;;;1.90;1.80;;;;;3.80;96539.00;;;;5055373;28;20219;-61
2023/04/09 05:36:15;;;;;;;1.80;1.70;;;;;3.90;96541.00;;;;5055558;28;20552;-60
2023/04/09 05:38:42;;;;;;;1.07;1.07;;;;;4.00;96550.00;;;;5055403;28;20652;-60
2023/04/09 05:41:10;;;;;;;2.73;2.53;;;;;3.90;96546.00;;;;5055480;28;20593;-63
2023/04/09 05:43:37;;;;;;;1.53;1.43;;;;;4.00;96546.00;;;;5083066;22;20243;-62
2023/04/09 05:46:06;;;;;;;1.53;1.43;;;;;4.00;96551.00;;;;5073910;28;20201;-62
2023/04/09 05:48:36;;;;;;;1.10;1.10;;;;;4.20;96551.00;;;;5075188;28;20192;-62
2023/04/09 05:51:03;;;;;;;1.30;1.30;;;;;4.20;96549.00;;;;5075625;28;20188;-63
2023/04/09 05:53:32;;;;;;;10.57;1.10;;;;;4.20;96552.00;;;;5075009;28;20522;-62
2023/04/09 05:55:59;;;;;;;1.20;1.20;;;;;4.30;96553.00;;;;5075479;28;20192;-62
2023/04/09 05:58:28;;;;;;;1.97;1.87;;;;;4.30;96557.00;;;;5075457;28;20538;-62
2023/04/09 06:00:55;;;;;;;1.00;1.00;;;;;4.40;96549.00;;;;5074819;28;20192;-63
2023/04/09 06:03:24;;;;;;;1.57;1.47;;;;;4.40;96543.00;;;;5075230;28;20589;-62
2023/04/09 06:05:52;;;;;;;2.70;2.50;;;;;4.40;96549.00;;;;5074748;28;20195;-63
2023/04/09 06:08:19;;;;;;;3.63;2.33;;;;;4.50;96549.00;;;;5073417;28;20597;-64
2023/04/09 06:10:46;;;;;;;4.13;2.07;;;;;4.60;96551.00;;;;5074904;28;20191;-62
2023/04/09 06:13:14;;;;;;;1.83;1.77;;;;;4.70;96556.00;;;;5074619;28;20205;-63
2023/04/09 06:15:41;;;;;;;2.57;1.80;;;;;4.70;96547.00;;;;5074630;28;20192;-62
2023/04/09 06:18:09;;;;;;;2.17;1.97;;;;;4.80;96549.00;;;;5074778;28;20199;-62
2023/04/09 06:20:38;;;;;;;2.03;1.67;;;;;4.90;96550.00;;;;5073122;28;20740;-62
2023/04/09 06:23:05;;;;;;;1.80;1.70;;;;;4.90;96546.00;;;;5074155;28;20227;-63
2023/04/09 06:25:33;;;;;;;2.27;2.07;;;;;4.90;96554.00;;;;5074277;28;20218;-62
2023/04/09 06:28:00;;;;;;;1.90;1.80;;;;;4.90;96554.00;;;;5074294;28;20198;-63
2023/04/09 06:30:28;;;;;;;2.73;2.50;;;;;4.90;96555.00;;;;5074421;28;20201;-63
2023/04/09 06:32:55;;;;;;;5.27;3.00;;;;;4.70;96549.00;;;;5074407;28;20264;-63
2023/04/09 06:35:24;;;;;;;2.53;2.43;;;;;4.80;96547.00;;;;5074427;28;20294;-63
2023/04/09 06:37:52;;;;;;;1.47;1.40;;;;;4.80;96554.00;;;;5073409;28;20212;-64
2023/04/09 06:40:21;;;;;;;1.63;1.53;;;;;4.80;96543.00;;;;5074101;28;20228;-63
2023/04/09 06:42:49;;;;;;;1.50;1.40;;;;;4.80;96550.00;;;;5073976;28;20219;-63
2023/04/09 06:45:16;;;;;;;1.37;1.37;;;;;5.00;96555.00;;;;5074466;28;20221;-63
2023/04/09 06:47:44;;;;;;;2.13;1.93;;;;;5.00;96562.00;;;;5073906;28;20188;-63
2023/04/09 06:50:11;;;;;;;1.93;1.83;;;;;5.10;96565.00;;;;5073878;28;20213;-63
2023/04/09 06:52:39;;;;;;;2.40;2.30;;;;;5.00;96561.00;;;;5074318;28;20690;-63
2023/04/09 06:55:09;;;;;;;0.97;0.97;;;;;5.10;96559.00;;;;5074163;28;20554;-63
2023/04/09 06:57:37;;;;;;;2.43;2.23;;;;;5.20;96564.00;;;;5074112;28;20191;-64
2023/04/09 07:00:05;;;;;;;2.00;1.90;;;;;5.40;96564.00;;;;5074333;28;20553;-64
2023/04/09 07:02:33;;;;;;;2.97;2.73;;;;;5.40;96557.00;;;;5073694;28;20792;-63
2023/04/09 07:05:00;;;;;;;1.97;1.87;;;;;5.60;96553.00;;;;5073842;28;20219;-63
2023/04/09 07:07:28;;;;;;;1.83;1.73;;;;;5.80;96564.00;;;;5073950;28;20191;-63
2023/04/09 07:09:55;;;;;;;3.37;3.00;;;;;6.00;96554.00;;;;5073496;28;20243;-63
2023/04/09 07:12:31;;;;;;;1.73;1.63;;;;;6.20;96555.00;;;;5073849;28;20211;-63
2023/04/09 07:14:59;;;;;;;2.73;2.57;;;;;6.20;96560.00;;;;5073609;28;20558;-63
2023/04/09 07:17:26;;;;;;;3.03;2.33;;;;;6.10;96564.00;;;;5073382;28;20190;-63
2023/04/09 07:19:54;;;;;;;1.90;1.80;;;;;6.10;96567.00;;;;5073399;28;20203;-63
2023/04/09 07:22:22;;;;;;;3.00;2.80;;;;;6.30;96563.00;;;;5073431;28;20580;-63
2023/04/09 07:24:52;;;;;;;1.77;1.67;;;;;6.50;96563.00;;;;5073379;28;20592;-63
2023/04/09 07:27:20;;;;;;;1.70;1.60;;;;;6.80;96569.00;;;;5072985;28;20209;-63
2023/04/09 07:29:49;;;;;;;2.20;2.10;;;;;6.90;96565.00;;;;5073141;28;20187;-63
2023/04/09 07:32:16;;;;;;;4.97;2.37;;;;;7.10;96569.00;;;;5073253;28;20222;-63
2023/04/09 07:34:44;;;;;;;2.30;2.10;;;;;7.40;96569.00;;;;5073066;28;20191;-63
2023/04/09 07:37:11;;;;;;;1.50;1.40;;;;;7.50;96560.00;;;;5073298;28;20192;-63
2023/04/09 07:39:39;;;;;;;2.70;2.07;;;;;7.60;96567.00;;;;5073110;28;20277;-63
2023/04/09 07:42:06;;;;;;;2.37;2.17;;;;;7.40;96576.00;;;;5072822;28;20198;-64
2023/04/09 07:44:35;;;;;;;5.77;2.50;;;;;7.50;96568.00;;;;5071795;28;20219;-63
2023/04/09 07:47:05;;;;;;;2.53;2.33;;;;;7.60;96579.00;;;;5072989;28;20195;-64
2023/04/09 07:49:33;;;;;;;2.50;2.33;;;;;7.80;96575.00;;;;5073638;28;20179;-63
2023/04/09 07:52:00;;;;;;;2.00;1.90;;;;;8.00;96565.00;;;;5071646;28;20195;-63
2023/04/09 07:54:28;;;;;;;2.53;2.33;;;;;8.10;96572.00;;;;5073059;28;20184;-63
2023/04/09 07:56:56;;;;;;;3.20;2.93;;;;;8.10;96579.00;;;;5073416;28;20214;-63
2023/04/09 07:59:24;;;;;;;1.37;1.37;;;;;7.80;96572.00;;;;5072913;28;20187;-63
2023/04/09 08:01:51;;;;;;;3.67;2.60;;;;;7.60;96575.00;;;;5073354;28;20203;-63
2023/04/09 08:04:20;;;;;;;1.73;1.63;;;;;7.60;96574.00;;;;5073314;28;20266;-63
2023/04/09 08:06:49;;;;;;;1.30;1.30;;;;;8.10;96574.00;;;;5072857;28;20191;-63
2023/04/09 08:09:17;;;;;;;3.80;3.50;;;;;8.20;96575.00;;;;5073382;28;20195;-64
2023/04/09 08:11:46;;;;;;;2.63;2.47;;;;;8.80;96576.00;;;;5072778;28;20260;-63
2023/04/09 08:14:14;;;;;;;1.43;1.43;;;;;9.10;96572.00;;;;5073272;28;20184;-63
2023/04/09 08:16:43;;;;;;;1.27;1.27;;;;;9.30;96584.00;;;;5072836;28;20191;-62
2023/04/09 08:19:11;;;;;;;1.97;1.87;;;;;9.40;96575.00;;;;5073072;28;20651;-63
2023/04/09 08:21:41;;;;;;;2.10;1.60;;;;;9.50;96578.00;;;;5072794;28;20195;-63
2023/04/09 08:24:10;;;;;;;1.63;1.53;;;;;9.50;96585.00;;;;5072973;28;20288;-63
2023/04/09 08:26:38;;;;;;;1.63;1.53;;;;;9.20;96581.00;;;;5072652;28;20616;-62
2023/04/09 08:29:06;;;;;;;2.47;2.27;;;;;9.50;96586.00;;;;5072580;28;20191;-62
2023/04/09 08:31:33;;;;;;;2.43;1.43;;;;;9.60;96576.00;;;;5071696;28;20286;-63
2023/04/09 08:34:01;;;;;;;1.60;1.47;;;;;9.50;96586.00;;;;5073034;28;20690;-62
2023/04/09 08:36:28;;;;;;;1.87;1.77;;;;;9.80;96585.00;;;;5072666;28;20196;-63
2023/04/09 08:38:59;;;;;;;1.27;1.27;;;;;10.00;96584.00;;;;5072602;28;20199;-62
2023/04/09 08:41:28;;;;;;;1.73;1.63;;;;;9.90;96596.00;;;;5072719;28;20187;-64
2023/04/09 08:44:16;;;;;;;1.03;1.03;;;;;9.90;96578.00;;;;5072659;28;20251;-62
2023/04/09 08:46:44;;;;;;;1.70;1.60;;;;;10.40;96572.00;;;;5072551;28;20188;-62
2023/04/09 08:49:11;;;;;;;1.63;1.53;;;;;10.30;96582.00;;;;5075534;28;20665;-62
2023/04/09 08:51:39;;;;;;;1.10;1.10;;;;;10.10;96580.00;;;;5076812;28;20192;-63
2023/04/09 08:54:08;;;;;;;1.10;1.10;;;;;9.50;96588.00;;;;5076868;28;20238;-63
2023/04/09 08:56:35;;;;;;;0.90;0.90;;;;;9.90;96585.00;;;;5074992;28;20222;-63
2023/04/09 08:59:03;;;;;;;0.90;0.90;;;;;10.60;96579.00;;;;5076181;28;20191;-63
2023/04/09 09:01:32;;;;;;;1.20;1.20;;;;;10.50;96592.00;;;;5076073;28;20282;-63
2023/04/09 09:04:02;;;;;;;2.33;1.63;;;;;10.70;96597.00;;;;5076002;28;20211;-63
2023/04/09 09:06:32;;;;;;;1.80;1.70;;;;;10.50;96600.00;;;;5076667;28;20190;-63
2023/04/09 09:09:05;;;;;;;1.10;1.10;;;;;10.20;96600.00;;;;5076314;28;20195;-63
2023/04/09 09:11:35;;;;;;;0.93;0.93;;;;;10.30;96602.00;;;;5076207;28;20249;-63
2023/04/09 09:14:05;;;;;;;0.73;0.73;;;;;10.30;96599.00;;;;5076127;28;20248;-63
2023/04/09 09:16:34;;;;;;;2.33;1.13;;;;;10.20;96591.00;;;;5074941;28;20191;-63
2023/04/09 09:19:02;;;;;;;0.90;0.90;;;;;10.10;96595.00;;;;5076323;28;20195;-63
2023/04/09 09:21:30;;;;;;;1.20;1.20;;;;;10.10;96595.00;;;;5075975;28;20205;-63
2023/04/09 09:23:58;;;;;;;1.13;1.13;;;;;10.20;96589.00;;;;5075593;28;20212;-63
2023/04/09 09:26:28;;;;;;;1.17;1.17;;;;;10.20;96599.00;;;;5074918;28;20195;-63
2023/04/09 09:29:00;;;;;;;0.80;0.80;;;;;9.90;96598.00;;;;5075650;28;20593;-63
2023/04/09 09:31:27;;;;;;;1.77;1.00;;;;;9.90;96596.00;;;;5075852;28;20215;-63
2023/04/09 09:33:55;;;;;;;0.97;0.97;;;;;10.10;96593.00;;;;5075489;28;20257;-63
2023/04/09 09:36:33;;;;;;;1.77;1.67;;;;;10.00;96602.00;;;;5074702;28;20196;-63
2023/04/09 09:39:07;;;;;;;0.50;0.50;;;;;10.20;96609.00;;;;5075361;28;20202;-63
2023/04/09 09:41:34;;;;;;;1.20;1.20;;;;;10.20;96604.00;;;;5075380;28;20221;-63
2023/04/09 09:44:05;;;;;;;1.23;1.23;;;;;10.20;96604.00;;;;5075368;28;20631;-63
2023/04/09 09:46:35;;;;;;;1.10;1.10;;;;;10.20;96612.00;;;;5076068;28;20211;-63
2023/04/09 09:49:03;;;;;;;0.90;0.90;;;;;10.20;96610.00;;;;5073826;28;20229;-62
2023/04/09 09:51:33;;;;;;;1.13;1.13;;;;;10.40;96608.00;;;;5075004;28;20316;-63
2023/04/09 09:54:01;;;;;;;0.77;0.77;;;;;10.60;96605.00;;;;5075154;28;20222;-63
2023/04/09 09:56:34;;;;;;;1.17;0.97;;;;;10.50;96618.00;;;;5074150;28;20203;-63
2023/04/09 09:59:07;;;;;;;0.80;0.80;;;;;10.20;96601.00;;;;5074568;28;20180;-63
2023/04/09 10:01:35;;;;;;;1.20;1.20;;;;;10.70;96608.00;;;;5075005;28;20184;-63
2023/04/09 10:04:05;;;;;;;1.10;1.10;;;;;10.30;96611.00;;;;5075077;28;20306;-63
2023/04/09 10:06:34;;;;;;;0.90;0.90;;;;;10.60;96603.00;;;;5075427;28;20191;-63
2023/04/09 10:09:05;;;;;;;0.90;0.90;;;;;10.60;96610.00;;;;5075112;28;20196;-65
2023/04/09 10:11:35;;;;;;;1.07;1.07;;;;;10.90;96588.00;;;;5074863;28;20277;-64
2023/04/09 10:14:05;;;;;;;1.30;1.30;;;;;11.40;96610.00;;;;5074983;28;20257;-64
2023/04/09 10:16:33;;;;;;;1.10;1.10;;;;;11.50;96603.00;;;;5075333;28;20241;-64
2023/04/09 10:19:02;;;;;;;1.37;1.37;;;;;11.50;96605.00;;;;5073352;28;20551;-64
2023/04/09 10:21:36;;;;;;;0.93;0.93;;;;;11.30;96602.00;;;;5075091;28;20192;-64
2023/04/09 10:24:06;;;;;;;0.87;0.87;;;;;11.00;96603.00;;;;5074453;28;20211;-62
2023/04/09 10:26:35;;;;;;;1.00;1.00;;;;;10.60;96606.00;;;;5075495;28;20250;-62
2023/04/09 10:29:08;;;;;;;1.17;1.17;;;;;10.80;96593.00;;;;5074295;28;20206;-63
2023/04/09 10:31:55;;;;;;;1.20;1.20;;;;;10.90;96599.00;;;;5074883;28;20229;-63
2023/04/09 10:34:26;;;;;;;1.23;1.20;;;;;10.90;96612.00;;;;5074449;28;20191;-63
2023/04/09 10:36:57;;;;;;;1.40;1.40;;;;;10.60;96610.00;;;;5074333;28;20238;-63
2023/04/09 10:39:28;;;;;;;1.13;1.10;;;;;10.60;96610.00;;;;5074516;28;20191;-63
2023/04/09 10:41:57;;;;;;;1.30;1.30;;;;;10.70;96609.00;;;;5072903;28;20725;-64
2023/04/09 10:44:27;;;;;;;1.10;1.10;;;;;10.50;96604.00;;;;5074431;28;20192;-63
2023/04/09 10:46:55;;;;;;;2.67;1.83;;;;;10.40;96607.00;;;;5074699;28;20191;-63
2023/04/09 10:49:24;;;;;;;1.07;1.07;;;;;10.50;96607.00;;;;5074100;28;20191;-63
2023/04/09 10:51:53;;;;;;;1.07;1.07;;;;;10.70;96598.00;;;;5074213;28;20558;-64
2023/04/09 10:54:42;;;;;;;1.20;1.20;;;;;10.40;96600.00;;;;5074192;28;20312;-64
2023/04/09 10:57:15;;;;;;;0.63;0.63;;;;;10.80;96591.00;;;;5074353;28;20667;-63
2023/04/09 10:59:45;;;;;;;1.47;1.37;;;;;10.70;96605.00;;;;5073945;28;20192;-63
2023/04/09 11:02:43;;;;;;;0.90;0.90;;;;;10.60;96591.00;;;;5073683;28;20211;-63
2023/04/09 11:05:21;;;;;;;1.20;1.13;;;;;10.30;96598.00;;;;5073754;28;20666;-63
2023/04/09 11:07:55;;;;;;;1.03;1.03;;;;;10.50;96589.00;;;;5074650;28;20187;-63
2023/04/09 11:10:22;;;;;;;0.90;0.90;;;;;10.40;96592.00;;;;5073480;28;20674;-63
2023/04/09 11:12:50;;;;;;;0.80;0.80;;;;;10.30;96585.00;;;;5073820;28;20208;-63
2023/04/09 11:15:19;;;;;;;1.80;1.43;;;;;10.60;96594.00;;;;5073613;28;20210;-63
2023/04/09 11:17:47;;;;;;;0.57;0.57;;;;;10.60;96596.00;;;;5074390;28;20282;-63
2023/04/09 11:20:16;;;;;;;1.70;1.60;;;;;10.80;96558.00;;;;5074055;28;20195;-63
2023/04/09 11:22:44;;;;;;;0.90;0.90;;;;;11.60;96591.00;;;;5072136;28;20709;-64
2023/04/09 11:25:17;;;;;;;1.00;1.00;;;;;11.70;96558.00;;;;5073384;28;20690;-63
2023/04/09 11:27:46;;;;;;;0.97;0.97;;;;;12.20;96591.00;;;;5074040;28;20179;-65
2023/04/09 11:30:14;;;;;;;0.87;0.87;;;;;12.30;96575.00;;;;5073931;28;20191;-63
2023/04/09 11:32:43;;;;;;;1.03;1.03;;;;;12.50;96547.00;;;;5073583;28;20219;-63
2023/04/09 11:35:15;;;;;;;1.60;1.57;;;;;12.30;96560.00;;;;5072837;28;20197;-63
2023/04/09 11:37:43;;;;;;;1.63;1.53;;;;;12.40;96551.00;;;;5073316;28;20198;-63
2023/04/09 11:40:16;;;;;;;1.10;1.10;;;;;13.20;96554.00;;;;5074095;28;20200;-63
2023/04/09 11:42:44;;;;;;;1.37;1.37;;;;;14.10;96549.00;;;;5073355;28;20239;-64
2023/04/09 11:45:12;;;;;;;1.63;1.17;;;;;12.80;96549.00;;;;5073020;28;20713;-64
2023/04/09 11:47:43;;;;;;;1.10;1.10;;;;;13.40;96549.00;;;;5073143;28;20211;-64
2023/04/09 11:50:11;;;;;;;0.83;0.83;;;;;14.30;96552.00;;;;5073699;28;20290;-65
2023/04/09 11:52:40;;;;;;;1.73;1.63;;;;;14.40;96548.00;;;;5071731;28;20294;-65
2023/04/09 11:55:09;;;;;;;1.20;1.10;;;;;14.40;96569.00;;;;5073021;28;20701;-64
2023/04/09 11:57:41;;;;;;;1.10;1.10;;;;;14.10;96569.00;;;;5071722;28;20199;-62
2023/04/09 12:00:11;;;;;;;1.60;1.50;;;;;14.30;96588.00;;;;5073835;28;20226;-61
2023/04/09 12:02:40;;;;;;;1.13;1.13;;;;;13.70;96575.00;;;;5072917;28;20298;-62
2023/04/09 12:05:12;;;;;;;1.57;1.47;;;;;13.50;96564.00;;;;5072925;28;20698;-62
2023/04/09 12:07:40;;;;;;;0.90;0.90;;;;;14.00;96567.00;;;;5073313;28;20223;-62
2023/04/09 12:10:10;;;;;;;1.17;1.13;;;;;14.20;96578.00;;;;5073421;28;20191;-62
2023/04/09 12:12:42;;;;;;;1.43;1.43;;;;;14.30;96587.00;;;;5071740;28;20219;-62
2023/04/09 12:15:21;;;;;;;1.10;1.10;;;;;14.10;96581.00;;;;5073140;28;20548;-62
2023/04/09 12:17:53;;;;;;;2.00;1.33;;;;;14.10;96574.00;;;;5072943;28;20254;-62
2023/04/09 12:20:34;;;;;;;1.73;1.40;;;;;14.10;96584.00;;;;5071591;28;20202;-62
2023/04/09 12:23:04;;;;;;;1.97;1.83;;;;;14.00;96583.00;;;;5075636;28;20238;-62
2023/04/09 12:25:32;;;;;;;0.87;0.87;;;;;13.30;96590.00;;;;5077245;28;20242;-62
2023/04/09 12:28:00;;;;;;;1.37;1.37;;;;;13.30;96593.00;;;;5077014;28;20519;-62
2023/04/09 12:30:27;;;;;;;1.03;1.00;;;;;12.80;96590.00;;;;5077325;28;20654;-62
2023/04/09 12:32:55;;;;;;;2.27;1.17;;;;;12.50;96605.00;;;;5076835;28;20237;-62